Time;durP1;ratioP1;P1;durP2;ratioP2;P2;SDS_P1;SDS_P2;PMS_P1;PMS_P2;Temp;Humidity;BMP_temperature;BMP_pressure;BME280_temperature;BME280_humidity;BME280_pressure;Samples;Min_cycle;Max_cycle;Signal;HPM_P1;HPM_P2
2022/12/06 00:08:47;;;;;;;0.32;0.20;;;-0.20;99.90;;;;;;20101170;23;20066;-59
2022/12/06 00:18:50;;;;;;;0.20;0.10;;;0.40;99.90;;;;;;20199749;23;20057;-60
2022/12/06 00:28:54;;;;;;;0.13;0.08;;;0.90;99.90;;;;;;20239204;23;20118;-58
2022/12/06 00:39:08;;;;;;;0.22;0.20;;;1.20;99.90;;;;;;20199578;23;20092;-53
2022/12/06 00:49:11;;;;;;;0.10;0.00;;;1.00;99.90;;;;;;20229021;23;21092;-59
2022/12/06 00:59:22;;;;;;;0.00;0.00;;;0.90;99.90;;;;;;20202855;23;20066;-59
2022/12/06 01:09:24;;;;;;;0.40;0.20;;;0.70;99.00;;;;;;20210282;23;20058;-60
2022/12/06 01:19:26;;;;;;;0.30;0.10;;;0.20;99.90;;;;;;20223998;23;20550;-60
2022/12/06 01:29:29;;;;;;;0.55;0.30;;;-0.30;99.90;;;;;;20253351;23;20049;-60
2022/12/06 01:39:32;;;;;;;0.63;0.30;;;-0.30;99.90;;;;;;21008921;23;20049;-58
2022/12/06 01:49:34;;;;;;;0.55;0.30;;;0.60;99.90;;;;;;20245666;23;20053;-60
2022/12/06 01:59:37;;;;;;;0.43;0.30;;;0.80;99.90;;;;;;20203319;23;20094;-61
2022/12/06 02:09:41;;;;;;;0.73;0.20;;;0.60;99.90;;;;;;20243806;23;20053;-60
2022/12/06 02:20:31;;;;;;;0.88;0.20;;;0.30;99.90;;;;;;20250736;23;20122;-59
2022/12/06 02:30:59;;;;;;;0.30;0.10;;;0.60;99.90;;;;;;20223439;23;20099;-61
2022/12/06 02:41:11;;;;;;;0.73;0.20;;;0.50;99.90;;;;;;20239789;23;20066;-61
2022/12/06 02:51:14;;;;;;;;;;;0.40;99.90;;;;;;20208499;23;20058;-60
2022/12/06 03:01:24;;;;;;;1.40;0.10;;;0.40;99.90;;;;;;20241636;23;19952;-59
2022/12/06 03:11:48;;;;;;;0.30;0.10;;;0.50;99.90;;;;;;20976394;23;20054;-59
2022/12/06 03:22:00;;;;;;;0.10;0.10;;;0.50;99.90;;;;;;20226603;23;20407;-62
2022/12/06 03:32:05;;;;;;;0.00;0.00;;;0.40;99.90;;;;;;20189773;23;20065;-61
2022/12/06 03:42:08;;;;;;;0.15;0.10;;;0.20;99.90;;;;;;20203299;23;20123;-52
2022/12/06 03:52:11;;;;;;;0.43;0.13;;;0.30;99.90;;;;;;20232830;23;20094;-58
2022/12/06 04:02:13;;;;;;;0.10;0.00;;;0.20;99.90;;;;;;20226559;23;20054;-60
2022/12/06 04:53:39;;;;;;;0.00;0.00;;;-0.10;99.90;;;;;;20225885;23;20061;-61
2022/12/06 05:03:42;;;;;;;0.57;0.10;;;-0.20;99.90;;;;;;20213457;23;20318;-62
2022/12/06 05:13:44;;;;;;;0.45;0.10;;;-0.20;99.90;;;;;;20217400;23;20062;-53
2022/12/06 05:23:47;;;;;;;0.10;0.00;;;-0.30;99.90;;;;;;20189404;23;1478229;-59
2022/12/06 05:33:50;;;;;;;0.00;0.00;;;-0.20;99.90;;;;;;20250215;23;20115;-61
2022/12/06 05:43:53;;;;;;;0.00;0.00;;;-0.20;99.90;;;;;;20224686;23;20054;-60
2022/12/06 05:53:56;;;;;;;0.10;0.00;;;-0.10;99.90;;;;;;20217543;23;20062;-61
2022/12/06 06:03:58;;;;;;;0.00;0.00;;;0.00;99.90;;;;;;20266630;23;20061;-50
2022/12/06 06:14:00;;;;;;;0.20;0.00;;;-0.10;99.90;;;;;;20245932;23;20126;-61
2022/12/06 06:24:03;;;;;;;2.33;0.00;;;0.10;99.90;;;;;;20217010;23;20058;-60
2022/12/06 06:34:05;;;;;;;1.35;0.08;;;-0.10;99.90;;;;;;20219942;23;20046;-61
2022/12/06 06:44:08;;;;;;;0.10;0.00;;;-0.10;99.90;;;;;;20183090;23;20580;-61
2022/12/06 06:54:11;;;;;;;0.00;0.00;;;-0.10;99.90;;;;;;20278674;23;20130;-60
2022/12/06 07:04:14;;;;;;;0.10;0.00;;;0.00;99.90;;;;;;20225127;23;20490;-61
2022/12/06 07:14:16;;;;;;;0.05;0.00;;;0.10;99.90;;;;;;20230359;23;20195;-60
2022/12/06 07:24:19;;;;;;;0.00;0.00;;;0.30;99.80;;;;;;20269204;23;20050;-59
2022/12/06 07:34:39;;;;;;;0.10;0.00;;;0.50;99.30;;;;;;20177541;23;20062;-59
2022/12/06 07:55:07;;;;;;;0.00;0.00;;;1.50;96.60;;;;;;20190626;23;20508;-61
2022/12/06 08:05:10;;;;;;;0.00;0.00;;;1.90;96.30;;;;;;20231934;23;20122;-57
2022/12/06 08:15:12;;;;;;;0.00;0.00;;;2.30;95.80;;;;;;20261636;23;20045;-58
2022/12/06 08:25:15;;;;;;;0.00;0.00;;;2.60;95.00;;;;;;20234255;23;20061;-54
2022/12/06 08:35:17;;;;;;;0.10;0.00;;;3.10;94.50;;;;;;20240840;23;20058;-56
2022/12/06 08:45:20;;;;;;;0.25;0.10;;;3.50;95.20;;;;;;20163846;23;20062;-58
2022/12/06 08:55:23;;;;;;;0.00;0.00;;;4.10;99.90;;;;;;20251139;23;20083;-59
2022/12/06 09:05:25;;;;;;;0.10;0.10;;;4.40;96.50;;;;;;20247263;23;20133;-59
2022/12/06 09:15:27;;;;;;;1.13;0.40;;;5.10;99.90;;;;;;20250645;23;20471;-57
2022/12/06 09:25:30;;;;;;;0.10;0.10;;;5.30;91.80;;;;;;20223877;23;20045;-57
2022/12/06 09:35:34;;;;;;;0.00;0.00;;;5.40;91.80;;;;;;20198244;23;20087;-58
2022/12/06 09:46:17;;;;;;;0.10;0.00;;;5.70;95.00;;;;;;20231900;23;20109;-61
2022/12/06 09:56:46;;;;;;;0.10;0.00;;;5.60;94.50;;;;;;20150741;23;20509;-47
2022/12/06 10:07:15;;;;;;;0.00;0.00;;;6.00;91.20;;;;;;20154471;23;20058;-56
2022/12/06 10:17:44;;;;;;;0.00;0.00;;;6.50;93.40;;;;;;20223098;23;20397;-60
2022/12/06 10:28:08;;;;;;;0.05;0.00;;;7.30;92.50;;;;;;20153926;23;20069;-55
2022/12/06 10:38:19;;;;;;;0.00;0.00;;;7.80;92.30;;;;;;20147003;23;20450;-62
2022/12/06 10:48:33;;;;;;;0.00;0.00;;;8.10;90.40;;;;;;20190057;23;20078;-58
2022/12/06 10:59:12;;;;;;;0.00;0.00;;;8.20;93.70;;;;;;20227826;23;20054;-61
2022/12/06 11:09:39;;;;;;;0.22;0.00;;;8.50;90.90;;;;;;20260019;23;20049;-59
2022/12/06 11:19:48;;;;;;;0.20;0.00;;;8.30;90.20;;;;;;20216725;23;20053;-61
2022/12/06 11:29:52;;;;;;;0.20;0.00;;;8.30;88.10;;;;;;20225579;23;20761;-63
2022/12/06 11:40:23;;;;;;;0.15;0.00;;;8.40;79.20;;;;;;20216765;23;20114;-61
2022/12/06 11:50:29;;;;;;;0.00;0.00;;;8.10;86.10;;;;;;20091730;23;20103;-63
2022/12/06 12:00:32;;;;;;;0.20;0.10;;;8.20;85.60;;;;;;20010170;29;20050;-62
2022/12/06 12:10:38;;;;;;;0.10;0.08;;;8.10;89.70;;;;;;20005911;29;20046;-63
2022/12/06 12:20:45;;;;;;;0.20;0.10;;;8.10;90.40;;;;;;19990201;29;20054;-60
2022/12/06 12:30:53;;;;;;;0.35;0.13;;;7.90;90.50;;;;;;20050007;23;20044;-62
2022/12/06 12:41:02;;;;;;;0.52;0.20;;;7.50;92.80;;;;;;20111487;23;20053;-61
2022/12/06 12:51:35;;;;;;;0.82;0.22;;;7.30;91.50;;;;;;20074160;29;20500;-61
2022/12/06 13:01:40;;;;;;;0.50;0.30;;;7.10;93.20;;;;;;20122786;23;20057;-61
2022/12/06 13:11:50;;;;;;;0.43;0.20;;;6.40;98.10;;;;;;20224210;23;20082;-64
2022/12/06 13:21:53;;;;;;;;;;;5.60;95.20;;;;;;20102575;23;20177;-61
2022/12/06 13:31:58;;;;;;;0.95;0.20;;;5.10;97.70;;;;;;20073011;29;20344;-61
2022/12/06 13:42:19;;;;;;;0.57;0.30;;;4.70;97.50;;;;;;20088710;29;20109;-60
2022/12/06 13:52:46;;;;;;;1.70;0.17;;;4.50;99.10;;;;;;20229552;23;20066;-67
2022/12/06 14:02:49;;;;;;;0.63;0.30;;;4.30;99.90;;;;;;20229575;23;20054;-60
2022/12/06 14:12:59;;;;;;;0.80;0.40;;;4.00;99.90;;;;;;20265597;23;20134;-58
2022/12/06 14:23:02;;;;;;;0.63;0.40;;;3.70;99.90;;;;;;20235487;23;20056;-59
2022/12/06 14:33:22;;;;;;;0.77;0.50;;;3.40;99.90;;;;;;20268742;23;20066;-61
2022/12/06 14:43:27;;;;;;;2.13;0.45;;;3.10;99.90;;;;;;20217134;23;20065;-60
2022/12/06 14:53:31;;;;;;;1.10;0.40;;;2.90;99.90;;;;;;20234843;23;20470;-59
2022/12/06 15:03:35;;;;;;;1.23;0.50;;;2.50;99.90;;;;;;20242569;23;20138;-61
2022/12/06 15:13:39;;;;;;;0.70;0.35;;;2.00;99.90;;;;;;20226674;23;20054;-62
2022/12/06 15:23:50;;;;;;;0.88;0.50;;;1.50;99.90;;;;;;20261211;23;20057;-59
2022/12/06 15:33:53;;;;;;;0.43;0.30;;;1.10;99.90;;;;;;20236500;23;21026;-60
2022/12/06 15:44:02;;;;;;;0.60;0.23;;;0.70;99.90;;;;;;20209523;23;20054;31
2022/12/06 15:54:06;;;;;;;0.75;0.30;;;0.40;99.90;;;;;;20114157;23;1288850;-59
2022/12/06 16:04:19;;;;;;;0.85;0.60;;;0.10;99.90;;;;;;20237254;23;20053;-60
2022/12/06 16:14:21;;;;;;;2.20;0.60;;;0.00;99.90;;;;;;20226002;23;20516;-67
2022/12/06 16:24:26;;;;;;;0.30;0.10;;;0.00;99.90;;;;;;20255575;23;20057;-61
2022/12/06 16:34:29;;;;;;;0.63;0.28;;;-0.20;99.90;;;;;;20266447;23;20057;-60
2022/12/06 16:44:49;;;;;;;0.30;0.20;;;-0.40;99.90;;;;;;20184394;23;20062;31
2022/12/06 16:55:05;;;;;;;0.30;0.10;;;-0.50;99.90;;;;;;20142717;23;20949;-60
2022/12/06 17:05:13;;;;;;;0.30;0.20;;;-0.70;99.90;;;;;;20197225;23;20054;-60
2022/12/06 17:15:20;;;;;;;0.68;0.30;;;-0.70;99.90;;;;;;20220106;23;20130;-61
2022/12/06 17:25:27;;;;;;;0.32;0.20;;;-0.80;99.90;;;;;;20184350;23;20057;-60
2022/12/06 17:35:30;;;;;;;0.52;0.20;;;-0.80;99.90;;;;;;20237946;23;20581;-62
2022/12/06 17:45:33;;;;;;;0.32;0.10;;;-0.80;99.90;;;;;;20226098;23;21095;-60
2022/12/06 17:55:43;;;;;;;0.40;0.20;;;-0.80;99.90;;;;;;20200958;23;20114;31
2022/12/06 18:05:47;;;;;;;0.93;0.30;;;-0.80;99.90;;;;;;20146807;23;20110;-60
2022/12/06 18:15:49;;;;;;;0.82;0.22;;;-0.80;99.90;;;;;;20241694;23;20423;-60
2022/12/06 18:25:52;;;;;;;0.20;0.20;;;-0.90;99.90;;;;;;20253277;23;20054;-60
2022/12/06 18:35:55;;;;;;;0.13;0.10;;;-1.00;99.90;;;;;;20254222;23;20410;-61
2022/12/06 18:45:59;;;;;;;0.75;0.20;;;-1.00;99.90;;;;;;20234553;23;20049;-60
2022/12/06 19:06:25;;;;;;;1.85;0.30;;;-1.10;99.90;;;;;;20216907;23;20101;-59
2022/12/06 19:16:39;;;;;;;1.02;0.30;;;-1.10;99.90;;;;;;20218416;23;20057;-54
2022/12/06 19:26:43;;;;;;;1.15;0.40;;;-1.10;99.90;;;;;;20254897;23;20058;-60
2022/12/06 19:36:48;;;;;;;1.08;0.40;;;-1.20;99.90;;;;;;20229380;23;20062;-54
2022/12/06 19:46:51;;;;;;;0.95;0.38;;;-1.20;99.90;;;;;;20215096;23;20053;-60
2022/12/06 19:56:56;;;;;;;0.85;0.40;;;-1.30;99.90;;;;;;20206990;23;20143;31
2022/12/06 20:07:00;;;;;;;1.05;0.50;;;-1.30;99.90;;;;;;20116000;23;20095;-60
2022/12/06 20:17:05;;;;;;;1.15;0.60;;;-1.40;99.90;;;;;;20246257;23;20068;-61
2022/12/06 20:27:10;;;;;;;1.10;0.52;;;-1.50;99.90;;;;;;20261540;23;20527;-53
2022/12/06 20:37:12;;;;;;;2.42;0.40;;;-1.50;99.90;;;;;;20223863;23;20057;-59
2022/12/06 20:47:15;;;;;;;1.38;0.50;;;-1.50;99.90;;;;;;20215608;23;20079;-60
2022/12/06 20:57:18;;;;;;;1.20;0.55;;;-1.60;99.90;;;;;;20156383;23;20122;-60
2022/12/06 21:07:35;;;;;;;0.80;0.40;;;-1.70;99.90;;;;;;20227829;23;20568;-61
2022/12/06 21:17:38;;;;;;;0.75;0.35;;;-1.60;99.90;;;;;;20244206;23;20110;-61
2022/12/06 21:27:41;;;;;;;1.20;0.40;;;-1.70;99.90;;;;;;20252128;23;20069;-59
2022/12/06 21:37:43;;;;;;;5.70;0.40;;;-1.60;99.90;;;;;;20230531;23;20050;-60
2022/12/06 21:47:46;;;;;;;1.80;0.40;;;-1.50;99.90;;;;;;20981892;23;20066;-58
2022/12/06 21:57:48;;;;;;;0.75;0.40;;;-1.50;99.90;;;;;;20215909;23;20142;-60
2022/12/06 22:07:51;;;;;;;0.93;0.30;;;-1.70;99.90;;;;;;20266254;23;20149;-59
2022/12/06 22:17:53;;;;;;;1.08;0.20;;;-1.80;99.90;;;;;;20287242;23;20061;-59
2022/12/06 22:27:56;;;;;;;2.50;0.32;;;-1.70;99.90;;;;;;20236546;23;20054;-60
2022/12/06 22:37:59;;;;;;;0.70;0.30;;;-2.00;99.90;;;;;;20188502;23;20115;-58
2022/12/06 22:48:01;;;;;;;1.08;0.30;;;-1.90;99.90;;;;;;20132622;24;20062;-59
2022/12/06 22:58:04;;;;;;;0.30;0.20;;;-2.00;99.90;;;;;;20220513;24;20125;-59
2022/12/06 23:08:06;;;;;;;0.40;0.20;;;-2.10;99.90;;;;;;20288376;23;20094;-60
2022/12/06 23:18:09;;;;;;;0.43;0.28;;;-2.10;99.90;;;;;;20264699;23;20111;-60
2022/12/06 23:28:12;;;;;;;0.73;0.30;;;-2.10;99.90;;;;;;20229691;23;20416;-59
2022/12/06 23:38:14;;;;;;;0.82;0.40;;;-2.10;99.90;;;;;;20167860;23;20115;-59
2022/12/06 23:48:17;;;;;;;0.63;0.30;;;-2.10;99.90;;;;;;20255928;23;20062;-58
2022/12/06 23:58:19;;;;;;;0.45;0.22;;;-2.10;99.90;;;;;;20214009;23;20049;-61
